Ahsahka, Idaho
Current Conditions -  °F | °C
As of 12:56 PM on Friday 31 Oct 2014 (Local Time) from KLWS Reporting Station
Scattered Clouds Scattered Clouds  
Wind Chill: 59°   Ceiling: Unl
Heat Index: 59°   Visibility: 10mi
Dew Point: 48°   Wind: 5mph
Humidity: 67%   Direction: 140°SE
Pressure: 29.73"   Gusts: NA
Location:  46.51°N, 116.35°W
Report Text: KLWS 311956Z 14004KT 10SM SCT110 15/09 A2973 RMK AO2 SLP066 T01500089
Loading
Personal Weather Stations






























Interactive Weather Map
Tropical Storm Tracking
New forecast layout! Learn more

10-Day Weather Forecast

Advertisements
Track Severe Weather on mobile